This is the latest recevied weather packets stored in our database for station/object PD3EM. If no packets are shown the sender has not sent any weather packets the latest 10 day(s).
| Time | Temp. | Humidity | Pressure | Rain* | Wind** | Luminosity | Snow |
|---|---|---|---|---|---|---|---|
| 1777283579 | 16.11° C | 63% | 1026.4 hPa | 0 mm | - | 506 W/m² | - |
| 1777278789 | 12.78° C | 78% | 1026.6 hPa | 0 mm | - | 385 W/m² | - |
| 1777275182 | 9.44° C | 83% | 1026.3 hPa | 0 mm | - | 182 W/m² | - |
| 1777274561 | 8.89° C | 84% | 1026.6 hPa | 0 mm | - | 195 W/m² | - |
| 1777270352 | 6.67° C | 88% | 1026.8 hPa | 0 mm | - | 75 W/m² | - |
| 1777264340 | 4.44° C | 89% | 1026.3 hPa | 0 mm | - | 5 W/m² | - |
| 1777261334 | 5° C | 88% | 1026.1 hPa | 0 mm | - | 0 W/m² | - |
| 1777260132 | 5° C | 88% | 1026 hPa | 0 mm | - | 0 W/m² | - |
| 1777257126 | 5.56° C | 86% | 1026.1 hPa | 0 mm | - | 0 W/m² | - |
| 1777254721 | 6.11° C | 86% | 1026.2 hPa | 0 mm | - | 0 W/m² | - |
| 1777254120 | 6.11° C | 85% | 1026.3 hPa | 0 mm | - | 0 W/m² | - |
| 1777253519 | 6.11° C | 85% | 1026.3 hPa | 0 mm | - | 0 W/m² | - |
| 1777251715 | 6.67° C | 85% | 1026.2 hPa | 0 mm | - | 0 W/m² | - |
| 1777244501 | 7.22° C | 85% | 1026.5 hPa | 0 mm | - | 0 W/m² | - |
| 1777241495 | 7.78° C | 84% | 1026.6 hPa | 0 mm | - | 0 W/m² | - |
| 1777239691 | 7.78° C | 82% | 1026.4 hPa | 0 mm | - | 0 W/m² | - |
| 1777236685 | 8.33° C | 81% | 1026.4 hPa | 0 mm | - | 0 W/m² | - |
| 1777231876 | 10° C | 76% | 1026.3 hPa | 0 mm | - | 0 W/m² | - |
| 1777221716 | 15° C | 59% | 1025.9 hPa | 0 mm | - | 148 W/m² | - |
| 1777218108 | 16.11° C | 51% | 1026.1 hPa | 0 mm | - | 310 W/m² | - |
| 1777214501 | 15.56° C | 49% | 1026.7 hPa | 0 mm | - | 397 W/m² | - |
| 1777213299 | 15.56° C | 52% | 1026.7 hPa | 0 mm | - | 437 W/m² | - |
| 1777212096 | 15.56° C | 52% | 1026.8 hPa | 0 mm | - | 476 W/m² | - |
| 1777209691 | 15.56° C | 52% | 1027.1 hPa | 0 mm | - | 522 W/m² | - |
| 1777206084 | 16.11° C | 55% | 1027.4 hPa | 0 mm | - | 608 W/m² | - |
* Rain latest hour (hover to see other rain measurements)
** Current wind speed in m/s (hover to see current wind gust speed)